Baixo Guandu, Brazil
Current Conditions -  °F | °C
As of 1:00 AM on Wednesday 22 Oct 2014 (Local Time) from SBVT Reporting Station
Broken Clouds Broken Clouds  
Wind Chill: 72°   Ceiling: 8000
Heat Index: 72°   Visibility: 6mi
Dew Point: 63°   Wind: 9mph
Humidity: 73%   Direction: 220°SW
Pressure: 30.09"   Gusts: NA
Location:  19.51°S, 41.02°W
Report Text: SBVT 220300Z 22008KT 9999 FEW040 BKN080 22/17 Q1019
Loading
Personal Weather Stations






























Interactive Weather Map
Tropical Storm Tracking
New forecast layout! Learn more

10-Day Weather Forecast

Advertisements
Track Severe Weather on mobile